Airfield :
LOGIN :

Register | Disclaimer

   EN    FR    IT 

 










Legend :    VFR   Marginal VFR   IFR   Intensive IFR   Very Intensive IFR
Visi :
Ceiling :
>= 8 km
>= 3000ft
5 to 8 km
1000 to 3000 ft
1500m to 5 km
500 to 1000 ft
800 to 1500m
200 to 500 ft
< 800m
< 200 ft
Symbols :   Thunderstorms  Fog  Heavy snow  Heavy precipitations  Wind > 20 kt
SIGMETs :     Misc.  Thunderstorms  Icing  Turbulence  Mountain Waves  Volcanic Ashes







- Airport Elevation : 200 ft


EBBL - Klein Brogel AB

CURRENT METAR :
  • 210025Z AUTO 29005KT 4100 BR BKN006/// OVC022/// 02/02 Q1007 YLO

EXPIRED METARs :
  • 202355Z AUTO 29004KT 3700 -RA OVC005/// 02/02 Q1006 YLO
  • 202325Z AUTO 28003KT 4000 BR BKN005/// BKN022/// BKN085/// 02/02 Q1005 YLO
  • 202255Z AUTO 31003KT 4900 BR OVC005/// 02/02 Q1005 YLO
  • 202225Z AUTO 33004KT 5000 OVC005/// 02/02 Q1004 YLO
  • 202155Z AUTO 33004KT 4500 BR OVC005/// 02/02 Q1003 YLO

Expired Forecast.
No reported NOTAMs for that airfield.



MET'MAP, your aeronautical weather chart ! - Copyright ORBIFLY December 2007 - Disclaimer

ORBIFLY MET'MAP TEAM :

Programming & Development : Alexandra Zaïnal
Concept & Development : Baudouin d'Aumeries
Co-Development & Prog : Marc-Olivier Méhu
Technical & hardware support : Manuel Goepfert

Contact : metmap@orbifly.com




SOURCES & CREDITS :

   NOAA